Limon, CO

6:05 AM MDT on September 18, 2014 (GMT -0600)
Limon, CO | Change Station
CLOSE
Current Station
Personal Weather Station
Location: Limon, CO
Elevation: 5361 ft
Nearby Weather Stations

Elev 5361 ft 39.27 °N, 103.68 °W | Updated 7 minutes ago

Clear
Clear
50.8 °F
Feels Like 50.8 °F
N
3.0
Wind Variable Wind from North
Gusts 4.0 mph

Today
High -- | Low -- °F
--% Chance of Precip.
Yesterday
High -- | Low -- °F
Precip. -- in
6:38 AM 6:58 PM
Waning Crescent, 27% visible
Pressure 29.86 in
Visibility 10.0 miles
Clouds Clear
Dew Point 42 °F
Humidity 73%
Rainfall 0.00 in
Snow Depth 0 in , 1 in , 0 in
UV 0 out of 12
Pollen 6.00 out of 12
Air Quality Not available.
Flu Activity Not available.
METAR KLIC 181155Z AUTO 35006KT 10SM CLR 08/04 A3005 RMK AO2 SLP110 T00780044 10139 20067 55004

More Conditions Fewer Conditions

Pressure 29.86 in
Visibility 10.0 miles
Clouds Clear
Dew Point 42 °F
Humidity 73%
Rainfall 0.00 in
Snow Depth 0 in , 1 in , 0 in
UV 0 out of 12
Pollen 6.00 out of 12
Air Quality Not available.
Flu Activity Not available.
METAR KLIC 181155Z AUTO 35006KT 10SM CLR 08/04 A3005 RMK AO2 SLP110 T00780044 10139 20067 55004

More Conditions Fewer Conditions

10-Day Weather Forecast

Almanac

Astronomy

Sep. 18, 2014 Rise Set
Actual Time 6:38 AM MDT 6:58 PM MDT
Civil Twilight 6:11 AM MDT 7:24 PM MDT
Nautical Twilight 5:40 AM MDT 7:56 PM MDT
Astronomical Twilight 5:08 AM MDT 8:28 PM MDT
Moon 1:34 AM MDT 3:49 PM MDT
Length of Visible Light 13h 13m
Length of Day
12h 19m
Tomorrow will be 2m 33s shorter.
Waning Crescent, 27% of the Moon is Illuminated
Today
Waning Crescent
Sep 24
New
Oct 1
First Quarter
Oct 8
Full
Oct 15
Last Quarter

Today's Extremes

State Highs State Lows

Community

WunderPhotos

Upload Photos

1,754,330 photos uploaded!

Nearby

Snow Depth

Station Depth Elevation
Rabbit Ears 0 in 9400 ft
Red Mountain Pass 1 in 11150 ft
Jackwhacker Gulch 0 in 10960 ft
Buffalo Park 0 in 9240 ft
Slumgullion 0 in 11440 ft

Earthquake Activity

City Distance Mag. Time & Date
No recent earthquake activity has been reported nearby.
Minimum magnitude displayed is 2.5.

Coastal Water Temperatures

Place Temperature
No Stations Reporting

Nearby Weather Stations